Time;durP1;ratioP1;P1;durP2;ratioP2;P2;SDS_P1;SDS_P2;PMS_P1;PMS_P2;Temp;Humidity;BMP_temperature;BMP_pressure;BME280_temperature;BME280_humidity;BME280_pressure;Samples;Min_cycle;Max_cycle;Signal;HPM_P1;HPM_P2
2022/05/12 00:00:20;;;;;;;;;;;;;;;26.01;35.29;99203.34;4460621;32;34483;-86
2022/05/12 00:02:48;;;;;;;;;;;;;;;25.86;35.51;99199.66;4479120;32;35040;-85
2022/05/12 00:05:16;;;;;;;;;;;;;;;25.78;35.73;99207.09;4467821;32;33785;-83
2022/05/12 00:07:43;;;;;;;;;;;;;;;25.90;35.64;99203.88;4466640;32;34227;-86
2022/05/12 00:10:13;;;;;;;;;;;;;;;25.78;35.83;99215.06;4477029;32;34321;-83
2022/05/12 00:12:40;;;;;;;;;;;;;;;25.80;35.91;99200.84;4479899;32;33902;-83
2022/05/12 00:15:10;;;;;;;;;;;;;;;25.85;35.77;99197.94;4481321;32;34689;-85
2022/05/12 00:17:38;;;;;;;;;;;;;;;25.73;35.98;99199.38;4467998;32;35050;-85
2022/05/12 00:20:06;;;;;;;;;;;;;;;25.84;35.76;99201.53;4463115;32;34875;-84
2022/05/12 00:22:33;;;;;;;;;;;;;;;25.84;35.70;99198.88;4468532;32;35075;-86
2022/05/12 00:25:01;;;;;;;;;;;;;;;25.79;35.77;99193.78;4468909;32;33496;-85
2022/05/12 00:27:28;;;;;;;;;;;;;;;25.75;35.92;99199.28;4469257;32;34997;-85
2022/05/12 00:29:55;;;;;;;;;;;;;;;25.60;36.22;99188.47;4482719;32;34416;-84
2022/05/12 00:32:23;;;;;;;;;;;;;;;25.64;36.31;99186.53;4472081;32;35276;-85
2022/05/12 00:34:50;;;;;;;;;;;;;;;25.42;36.59;99189.34;4475644;32;34542;-84
2022/05/12 00:37:17;;;;;;;;;;;;;;;25.32;37.01;99182.78;4481031;32;34222;-85
2022/05/12 00:39:45;;;;;;;;;;;;;;;25.29;37.00;99182.91;4483362;32;34197;-85
2022/05/12 00:42:12;;;;;;;;;;;;;;;25.18;37.27;99186.06;4482991;32;34640;-83
2022/05/12 00:44:39;;;;;;;;;;;;;;;24.75;38.24;99183.56;4482659;32;33859;-85
2022/05/12 00:47:07;;;;;;;;;;;;;;;25.13;37.43;99194.25;4469732;32;34043;-85
2022/05/12 00:49:35;;;;;;;;;;;;;;;25.30;37.15;99189.94;4470011;32;34363;-84
2022/05/12 00:52:10;;;;;;;;;;;;;;;25.14;37.26;99188.00;4483114;32;33880;-85
2022/05/12 00:54:42;;;;;;;;;;;;;;;25.11;37.40;99189.94;4465767;32;34506;-85
2022/05/12 00:57:09;;;;;;;;;;;;;;;24.72;38.24;99191.66;4483100;32;34117;-84
2022/05/12 00:59:36;;;;;;;;;;;;;;;24.89;37.88;99184.72;4462390;32;34070;-83
2022/05/12 01:02:06;;;;;;;;;;;;;;;25.04;37.59;99189.34;4481094;32;34557;-84
2022/05/12 01:04:33;;;;;;;;;;;;;;;25.05;37.46;99184.91;4468909;32;33846;-84
2022/05/12 01:07:01;;;;;;;;;;;;;;;24.83;37.86;99182.34;4468340;32;34402;-82
2022/05/12 01:09:29;;;;;;;;;;;;;;;24.86;37.86;99190.19;4477376;32;35138;-85
2022/05/12 01:11:56;;;;;;;;;;;;;;;24.68;38.09;99190.06;4467746;32;34104;-84
2022/05/12 01:14:23;;;;;;;;;;;;;;;24.96;37.72;99186.16;4478628;32;33767;-84
2022/05/12 01:16:52;;;;;;;;;;;;;;;25.02;37.39;99180.59;4482896;32;35045;-84
2022/05/12 01:19:21;;;;;;;;;;;;;;;24.98;37.52;99184.31;4477701;32;34582;-85
2022/05/12 01:21:48;;;;;;;;;;;;;;;25.15;37.25;99186.19;4477302;32;34276;-84
2022/05/12 01:24:16;;;;;;;;;;;;;;;25.19;37.00;99188.66;4468161;32;33233;-84
2022/05/12 01:26:44;;;;;;;;;;;;;;;24.95;37.27;99187.09;4468341;32;34028;-84
2022/05/12 01:29:11;;;;;;;;;;;;;;;24.89;37.56;99180.28;4481587;32;34904;-85
2022/05/12 01:31:39;;;;;;;;;;;;;;;24.83;37.62;99185.00;4467809;32;34988;-85
2022/05/12 01:34:07;;;;;;;;;;;;;;;24.76;37.80;99184.41;4480715;32;33545;-84
2022/05/12 01:36:34;;;;;;;;;;;;;;;24.83;37.63;99185.87;4442798;32;33788;-84
2022/05/12 01:39:02;;;;;;;;;;;;;;;24.83;37.58;99182.34;4479157;32;33856;-85
2022/05/12 01:41:30;;;;;;;;;;;;;;;24.69;37.86;99178.53;4482744;32;34417;-84
2022/05/12 01:43:57;;;;;;;;;;;;;;;24.80;37.58;99175.38;4477815;32;33231;-86
2022/05/12 01:46:25;;;;;;;;;;;;;;;24.79;37.67;99183.44;4472465;32;34200;-85
2022/05/12 01:48:52;;;;;;;;;;;;;;;24.41;38.50;99180.69;4475479;32;34474;-86
2022/05/12 01:51:19;;;;;;;;;;;;;;;24.37;38.75;99181.72;4467825;32;34545;-85
2022/05/12 01:53:47;;;;;;;;;;;;;;;24.30;38.87;99177.59;4478752;32;33480;-85
2022/05/12 01:56:14;;;;;;;;;;;;;;;24.32;38.60;99183.69;4472786;32;35146;-84
2022/05/12 01:58:41;;;;;;;;;;;;;;;24.04;39.41;99176.91;4476519;32;34399;-85
2022/05/12 02:01:09;;;;;;;;;;;;;;;24.28;38.87;99175.00;4473939;32;35085;-85
2022/05/12 02:03:40;;;;;;;;;;;;;;;24.19;38.86;99173.62;4481771;32;33912;-83
2022/05/12 02:06:08;;;;;;;;;;;;;;;24.39;38.44;99178.09;4482144;32;34659;-83
2022/05/12 02:08:35;;;;;;;;;;;;;;;24.24;38.57;99170.75;4477491;32;35150;-86
2022/05/12 02:11:02;;;;;;;;;;;;;;;24.05;39.19;99165.38;4478717;32;34281;-85
2022/05/12 02:13:29;;;;;;;;;;;;;;;24.13;38.84;99150.06;4480628;32;33676;-84
2022/05/12 02:15:57;;;;;;;;;;;;;;;23.86;39.46;99144.12;4471827;32;33840;-85
2022/05/12 02:18:25;;;;;;;;;;;;;;;24.20;38.71;99158.56;4474372;32;35259;-84
2022/05/12 02:20:53;;;;;;;;;;;;;;;24.11;38.78;99149.25;4476289;32;32868;-85
2022/05/12 02:23:20;;;;;;;;;;;;;;;24.03;38.96;99161.97;4481392;32;33799;-85
2022/05/12 02:25:48;;;;;;;;;;;;;;;23.73;39.60;99158.81;4466789;32;34082;-85
2022/05/12 02:28:15;;;;;;;;;;;;;;;23.99;39.10;99153.28;4471977;32;34471;-84
2022/05/12 02:30:42;;;;;;;;;;;;;;;24.23;38.51;99151.38;4472996;32;34341;-85
2022/05/12 02:33:10;;;;;;;;;;;;;;;23.82;39.48;99157.56;4473984;32;34403;-85
2022/05/12 02:35:38;;;;;;;;;;;;;;;23.67;39.68;99162.53;4482802;32;33501;-83
2022/05/12 02:38:05;;;;;;;;;;;;;;;23.98;39.00;99163.91;4464503;32;35190;-84
2022/05/12 02:40:33;;;;;;;;;;;;;;;24.12;38.65;99153.63;4465033;32;35385;-84
2022/05/12 02:43:00;;;;;;;;;;;;;;;24.03;39.16;99164.59;4467542;32;33744;-85
2022/05/12 02:45:28;;;;;;;;;;;;;;;24.08;38.89;99167.06;4483853;32;34164;-83
2022/05/12 02:47:55;;;;;;;;;;;;;;;24.17;38.81;99164.00;4479440;32;35131;-85
2022/05/12 02:50:23;;;;;;;;;;;;;;;23.90;39.15;99166.88;4467770;32;34353;-85
2022/05/12 02:52:50;;;;;;;;;;;;;;;24.02;38.93;99162.91;4469359;32;33779;-84
2022/05/12 02:55:18;;;;;;;;;;;;;;;24.03;38.76;99162.81;4483630;32;33821;-84
2022/05/12 02:57:45;;;;;;;;;;;;;;;23.92;39.11;99166.84;4483844;32;34376;-84
2022/05/12 03:00:14;;;;;;;;;;;;;;;24.11;38.77;99166.94;4482161;32;34447;-84
2022/05/12 03:02:41;;;;;;;;;;;;;;;24.21;38.40;99162.97;4482794;32;33621;-85
2022/05/12 03:05:09;;;;;;;;;;;;;;;24.23;38.28;99169.91;4479922;32;34324;-85
2022/05/12 03:07:36;;;;;;;;;;;;;;;24.20;38.23;99172.69;4483520;32;34474;-85
2022/05/12 03:10:04;;;;;;;;;;;;;;;24.04;38.75;99175.12;4473230;32;34456;-84
2022/05/12 03:12:32;;;;;;;;;;;;;;;24.07;38.56;99176.78;4482940;32;33659;-85
2022/05/12 03:15:00;;;;;;;;;;;;;;;24.33;37.91;99185.44;4479937;32;34916;-85
2022/05/12 03:17:28;;;;;;;;;;;;;;;24.25;37.92;99186.63;4470886;32;34320;-83
2022/05/12 03:19:55;;;;;;;;;;;;;;;24.17;38.13;99185.19;4481242;32;34362;-85
2022/05/12 03:22:22;;;;;;;;;;;;;;;24.17;38.22;99191.38;4481075;32;34444;-84
2022/05/12 03:24:50;;;;;;;;;;;;;;;24.27;38.00;99192.69;4470339;32;34296;-84
2022/05/12 03:27:18;;;;;;;;;;;;;;;24.32;37.86;99192.53;4480529;32;35372;-85
2022/05/12 03:29:45;;;;;;;;;;;;;;;24.40;37.53;99186.91;4478775;32;35391;-85
2022/05/12 03:32:13;;;;;;;;;;;;;;;24.51;37.46;99190.81;4481245;32;33758;-83
2022/05/12 03:34:40;;;;;;;;;;;;;;;24.55;37.32;99186.25;4475138;32;34444;-83
2022/05/12 03:37:08;;;;;;;;;;;;;;;24.63;37.07;99181.47;4482197;32;34461;-85
2022/05/12 03:39:42;;;;;;;;;;;;;;;24.56;37.10;99182.66;4480789;32;35475;-82
2022/05/12 03:42:15;;;;;;;;;;;;;;;24.61;37.19;99185.97;4466930;32;33446;-84
2022/05/12 03:44:54;;;;;;;;;;;;;;;24.63;37.30;99184.13;4475423;32;34135;-84
2022/05/12 03:47:29;;;;;;;;;;;;;;;24.60;37.48;99184.25;4448692;32;35196;-82
2022/05/12 03:49:59;;;;;;;;;;;;;;;24.68;37.35;99186.56;4482675;32;34541;-84
2022/05/12 03:52:27;;;;;;;;;;;;;;;24.58;37.53;99180.78;4468982;32;33038;-85
2022/05/12 03:54:54;;;;;;;;;;;;;;;24.57;37.67;99184.38;4469058;32;34791;-85
2022/05/12 03:57:22;;;;;;;;;;;;;;;24.61;37.79;99188.59;4474238;32;34065;-85
2022/05/12 03:59:50;;;;;;;;;;;;;;;24.57;38.18;99178.22;4472763;32;34565;-84
2022/05/12 04:02:18;;;;;;;;;;;;;;;24.75;37.90;99180.06;4477423;32;33306;-84
2022/05/12 04:04:46;;;;;;;;;;;;;;;24.85;37.76;99193.75;4469173;32;34215;-84
2022/05/12 04:07:14;;;;;;;;;;;;;;;24.95;37.83;99193.25;4482985;32;34046;-83
2022/05/12 04:09:41;;;;;;;;;;;;;;;25.31;37.49;99199.63;4475824;32;35090;-84
2022/05/12 04:12:09;;;;;;;;;;;;;;;25.64;36.71;99195.34;4480835;32;33723;-84
2022/05/12 04:14:37;;;;;;;;;;;;;;;25.90;36.26;99198.56;4482541;32;34915;-83
2022/05/12 04:17:05;;;;;;;;;;;;;;;25.88;36.63;99195.13;4460186;32;33064;-84
2022/05/12 04:19:33;;;;;;;;;;;;;;;26.32;35.68;99192.03;4472529;32;34509;-84
2022/05/12 04:22:00;;;;;;;;;;;;;;;26.60;35.38;99197.66;4475632;32;34542;-83
2022/05/12 04:24:27;;;;;;;;;;;;;;;27.10;34.33;99201.22;4452482;32;784342;-84
2022/05/12 04:26:55;;;;;;;;;;;;;;;27.21;34.08;99203.34;4479889;32;35189;-84
2022/05/12 04:29:22;;;;;;;;;;;;;;;27.62;33.67;99214.34;4476774;32;35147;-85
2022/05/12 04:31:49;;;;;;;;;;;;;;;28.17;32.90;99211.19;4472860;32;33741;-85
2022/05/12 04:37:03;;;;;;;;;;;;;;;28.65;32.15;99216.37;4481002;32;34397;-83
2022/05/12 04:39:31;;;;;;;;;;;;;;;28.68;32.42;99216.19;4482588;32;34281;-84
2022/05/12 04:42:04;;;;;;;;;;;;;;;28.95;31.96;99209.16;4474876;32;33526;-82
2022/05/12 04:44:31;;;;;;;;;;;;;;;29.51;30.85;99219.91;4468949;32;34752;-84
2022/05/12 04:46:59;;;;;;;;;;;;;;;29.54;31.06;99219.72;4479269;32;33490;-84
2022/05/12 04:49:26;;;;;;;;;;;;;;;29.72;30.57;99228.38;4487421;31;33964;-84
2022/05/12 04:51:56;;;;;;;;;;;;;;;30.06;30.29;99219.00;4481586;31;34281;-83
2022/05/12 04:54:24;;;;;;;;;;;;;;;29.84;28.87;99224.91;4482723;32;34305;-84
2022/05/12 04:56:51;;;;;;;;;;;;;;;30.00;30.09;99222.97;4482674;32;33767;-84
2022/05/12 04:59:19;;;;;;;;;;;;;;;29.85;30.80;99231.09;4479340;32;34160;-84
2022/05/12 05:01:46;;;;;;;;;;;;;;;29.88;30.72;99231.75;4479763;32;33539;-85
2022/05/12 05:04:14;;;;;;;;;;;;;;;30.58;29.41;99228.03;4480939;32;34024;-83
2022/05/12 05:06:41;;;;;;;;;;;;;;;30.57;29.19;99229.81;4481871;32;34132;-85
2022/05/12 05:09:09;;;;;;;;;;;;;;;30.20;28.61;99228.81;4478653;32;34562;-83
2022/05/12 05:11:38;;;;;;;;;;;;;;;28.79;30.19;99235.94;4471296;32;34128;-83
2022/05/12 05:14:05;;;;;;;;;;;;;;;29.49;29.64;99228.03;4478292;32;34376;-83
2022/05/12 05:16:33;;;;;;;;;;;;;;;30.22;28.65;99232.22;4482886;32;34269;-83
2022/05/12 05:19:00;;;;;;;;;;;;;;;29.54;28.82;99227.72;4483022;32;34490;-84
2022/05/12 05:21:27;;;;;;;;;;;;;;;29.86;30.19;99239.03;4482684;32;34538;-84
2022/05/12 05:23:55;;;;;;;;;;;;;;;30.21;29.16;99223.34;4480982;32;34228;-83
2022/05/12 05:26:22;;;;;;;;;;;;;;;30.11;29.52;99238.25;4467570;32;34369;-84
2022/05/12 05:28:49;;;;;;;;;;;;;;;29.34;29.92;99231.66;4468578;32;34628;-85
2022/05/12 05:31:17;;;;;;;;;;;;;;;29.47;29.58;99237.97;4482577;32;33651;-84
2022/05/12 05:33:44;;;;;;;;;;;;;;;28.83;30.03;99233.94;4482859;32;32642;-85
2022/05/12 05:36:11;;;;;;;;;;;;;;;29.10;29.87;99234.09;4482815;32;34287;-84
2022/05/12 05:38:39;;;;;;;;;;;;;;;29.22;29.48;99237.78;4482769;32;35195;-85
2022/05/12 05:41:07;;;;;;;;;;;;;;;29.20;29.88;99237.88;4482900;31;33740;-85
2022/05/12 05:43:35;;;;;;;;;;;;;;;29.26;30.64;99248.19;4474323;32;35088;-86
2022/05/12 05:46:02;;;;;;;;;;;;;;;29.07;29.80;99235.12;4480357;32;34327;-85
2022/05/12 05:48:31;;;;;;;;;;;;;;;29.46;29.85;99238.91;4480953;32;34455;-86
2022/05/12 05:53:44;;;;;;;;;;;;;;;29.15;30.44;99239.13;4474580;32;34868;-84
2022/05/12 05:56:14;;;;;;;;;;;;;;;29.26;30.36;99244.66;4481803;32;34188;-86
2022/05/12 05:58:43;;;;;;;;;;;;;;;29.78;29.94;99247.56;4478835;32;35169;-83
2022/05/12 06:01:10;;;;;;;;;;;;;;;30.05;29.00;99238.69;4481593;32;33029;-85
2022/05/12 06:03:38;;;;;;;;;;;;;;;29.83;29.51;99249.06;4482269;32;33671;-84
2022/05/12 06:06:06;;;;;;;;;;;;;;;29.50;29.35;99248.44;4482881;32;34492;-85
2022/05/12 06:08:34;;;;;;;;;;;;;;;28.59;31.18;99245.13;4468220;32;35062;-85
2022/05/12 06:11:04;;;;;;;;;;;;;;;28.76;31.58;99253.94;4483590;32;33649;-85
2022/05/12 06:13:32;;;;;;;;;;;;;;;28.94;30.46;99258.12;4469695;32;33674;-84
2022/05/12 06:16:00;;;;;;;;;;;;;;;28.72;31.21;99257.75;4483338;32;34286;-83
2022/05/12 06:18:27;;;;;;;;;;;;;;;28.81;31.22;99250.03;4484258;32;35842;-84
2022/05/12 06:20:55;;;;;;;;;;;;;;;28.22;31.94;99248.22;4484596;32;34541;-84
2022/05/12 06:23:22;;;;;;;;;;;;;;;28.07;32.53;99256.19;4484984;32;33755;-85
2022/05/12 06:25:50;;;;;;;;;;;;;;;28.05;33.05;99257.22;4484773;32;34495;-85
2022/05/12 06:28:17;;;;;;;;;;;;;;;28.65;31.35;99249.25;4484555;32;34668;-84
2022/05/12 06:30:45;;;;;;;;;;;;;;;29.36;31.05;99247.59;4482854;32;33720;-85
2022/05/12 06:33:16;;;;;;;;;;;;;;;29.06;31.45;99249.44;4484247;32;34256;-85
2022/05/12 06:35:44;;;;;;;;;;;;;;;29.34;31.13;99253.03;4484360;32;34108;-86
2022/05/12 06:38:11;;;;;;;;;;;;;;;28.78;31.82;99254.69;4484245;32;34914;-85
2022/05/12 06:40:39;;;;;;;;;;;;;;;28.89;31.12;99246.91;4482882;32;34416;-86
2022/05/12 06:43:08;;;;;;;;;;;;;;;29.12;29.98;99250.84;4470000;32;34183;-85
2022/05/12 06:45:36;;;;;;;;;;;;;;;29.43;30.55;99256.94;4470260;32;33962;-86
2022/05/12 06:48:04;;;;;;;;;;;;;;;29.35;30.17;99257.41;4484089;32;34730;-85
2022/05/12 06:50:31;;;;;;;;;;;;;;;29.30;30.47;99257.72;4484545;32;34290;-85
2022/05/12 06:52:59;;;;;;;;;;;;;;;29.28;29.78;99264.97;4484579;32;33746;-85
2022/05/12 06:55:29;;;;;;;;;;;;;;;29.39;30.68;99269.63;4484163;32;33190;-85
2022/05/12 06:57:56;;;;;;;;;;;;;;;29.29;30.73;99268.50;4470158;32;34422;-85
2022/05/12 07:00:24;;;;;;;;;;;;;;;29.41;31.20;99270.41;4484127;32;32956;-85
2022/05/12 07:02:52;;;;;;;;;;;;;;;29.30;30.81;99263.06;4484189;32;33778;-85
2022/05/12 07:05:22;;;;;;;;;;;;;;;29.79;30.33;99264.44;4484102;32;35317;-86
2022/05/12 07:07:49;;;;;;;;;;;;;;;29.86;30.23;99260.41;4470061;32;34102;-85
2022/05/12 07:10:17;;;;;;;;;;;;;;;29.89;30.77;99265.56;4483482;32;33408;-84
2022/05/12 07:12:44;;;;;;;;;;;;;;;30.56;29.21;99256.69;4483951;32;34028;-85
2022/05/12 07:15:12;;;;;;;;;;;;;;;30.17;29.50;99253.09;4483999;32;34086;-86
2022/05/12 07:17:42;;;;;;;;;;;;;;;28.90;31.39;99258.44;4483896;32;34358;-84
2022/05/12 07:28:28;;;;;;;;;;;;;;;29.66;31.32;99260.84;4483782;32;34732;-84
2022/05/12 07:31:01;;;;;;;;;;;;;;;30.00;30.90;99251.47;4464229;32;33428;-85
2022/05/12 07:33:40;;;;;;;;;;;;;;;29.91;30.52;99258.28;4468460;32;33389;-85
2022/05/12 07:36:10;;;;;;;;;;;;;;;30.35;30.44;99259.88;4454048;32;35369;-85
2022/05/12 07:38:37;;;;;;;;;;;;;;;30.70;29.22;99251.25;4476372;32;34557;-85
2022/05/12 07:41:07;;;;;;;;;;;;;;;30.38;29.83;99251.63;4469981;32;33672;-85
2022/05/12 07:43:34;;;;;;;;;;;;;;;30.35;29.17;99243.84;4483553;32;33722;-83
2022/05/12 07:46:01;;;;;;;;;;;;;;;29.46;30.90;99254.06;4483787;32;35379;-84
2022/05/12 07:48:29;;;;;;;;;;;;;;;27.68;34.26;99255.75;4469743;32;34829;-85
2022/05/12 07:50:56;;;;;;;;;;;;;;;29.17;32.73;99242.53;4483806;32;33640;-85
2022/05/12 07:53:23;;;;;;;;;;;;;;;30.33;30.56;99240.38;4480379;32;34338;-86
2022/05/12 07:55:51;;;;;;;;;;;;;;;30.42;30.40;99246.91;4467888;32;35094;-85
2022/05/12 07:58:18;;;;;;;;;;;;;;;30.01;30.90;99248.72;4441083;32;34527;-83
2022/05/12 08:00:46;;;;;;;;;;;;;;;30.14;30.39;99247.91;4466258;32;33553;-86
2022/05/12 08:03:13;;;;;;;;;;;;;;;30.36;30.63;99248.22;4467717;32;34245;-85
2022/05/12 08:05:41;;;;;;;;;;;;;;;30.67;28.56;99252.31;4467725;32;34523;-85
2022/05/12 08:08:09;;;;;;;;;;;;;;;31.32;28.37;99253.22;4466817;32;32955;-85
2022/05/12 08:10:36;;;;;;;;;;;;;;;30.93;29.26;99258.59;4466664;32;33772;-86
2022/05/12 08:13:04;;;;;;;;;;;;;;;31.12;28.54;99260.81;4467966;32;33912;-84
2022/05/12 08:15:31;;;;;;;;;;;;;;;30.06;29.95;99262.63;4456552;32;34151;-84
2022/05/12 08:17:59;;;;;;;;;;;;;;;30.08;29.67;99259.00;4467369;32;34345;-86
2022/05/12 08:20:26;;;;;;;;;;;;;;;29.71;31.33;99264.09;4461867;32;33485;-85
2022/05/12 08:22:53;;;;;;;;;;;;;;;30.35;30.13;99262.56;4483482;32;34397;-84
2022/05/12 08:25:21;;;;;;;;;;;;;;;29.47;31.65;99266.47;4483288;32;35142;-85
2022/05/12 08:27:48;;;;;;;;;;;;;;;29.58;31.36;99259.50;4483324;32;34095;-85
2022/05/12 08:30:19;;;;;;;;;;;;;;;30.54;29.72;99262.16;4469051;32;34505;-85
2022/05/12 08:32:46;;;;;;;;;;;;;;;30.33;30.06;99256.44;4473130;32;35006;-85
2022/05/12 08:35:14;;;;;;;;;;;;;;;30.59;29.38;99253.81;4467881;32;34810;-85
2022/05/12 08:37:41;;;;;;;;;;;;;;;30.56;29.96;99270.06;4467677;32;33878;-85
2022/05/12 08:40:11;;;;;;;;;;;;;;;30.38;29.69;99256.13;4475626;32;33607;-85
2022/05/12 08:42:41;;;;;;;;;;;;;;;31.03;29.11;99258.81;4458172;32;34991;-85
2022/05/12 08:45:11;;;;;;;;;;;;;;;31.28;28.22;99265.94;4468958;32;34544;-85
2022/05/12 08:47:42;;;;;;;;;;;;;;;30.74;29.91;99266.19;4473933;32;34601;-85
2022/05/12 08:50:21;;;;;;;;;;;;;;;30.65;30.24;99264.09;4457264;32;34337;-85
2022/05/12 08:52:57;;;;;;;;;;;;;;;30.85;30.39;99270.78;4462164;32;34022;-85
2022/05/12 08:55:27;;;;;;;;;;;;;;;31.48;28.35;99273.47;4467634;32;34093;-85
2022/05/12 08:58:04;;;;;;;;;;;;;;;31.22;28.73;99279.78;4453742;32;34046;-86
2022/05/12 09:00:40;;;;;;;;;;;;;;;31.60;28.46;99269.03;4453630;32;33424;-85
2022/05/12 09:03:20;;;;;;;;;;;;;;;30.98;29.07;99277.84;4467588;32;34292;-85
2022/05/12 09:05:58;;;;;;;;;;;;;;;31.31;28.46;99273.81;4466233;32;34198;-85
2022/05/12 09:08:41;;;;;;;;;;;;;;;31.05;29.07;99274.75;4469387;32;34193;-85
2022/05/12 09:11:16;;;;;;;;;;;;;;;31.81;29.05;99265.75;4483270;32;34059;-85
2022/05/12 09:13:43;;;;;;;;;;;;;;;32.07;28.44;99277.28;4483054;32;34583;-86
2022/05/12 09:16:14;;;;;;;;;;;;;;;30.62;30.35;99280.38;4483278;32;34441;-86
2022/05/12 09:18:42;;;;;;;;;;;;;;;30.26;31.11;99276.53;4468912;32;35371;-85
2022/05/12 09:21:10;;;;;;;;;;;;;;;30.29;32.76;99276.31;4482858;32;34272;-85
2022/05/12 09:23:38;;;;;;;;;;;;;;;31.29;30.00;99275.69;4468862;32;34666;-85
2022/05/12 09:26:24;;;;;;;;;;;;;;;31.23;29.06;99278.81;4482777;32;35141;-85
2022/05/12 09:28:53;;;;;;;;;;;;;;;31.75;29.47;99272.44;4482843;32;34544;-85
2022/05/12 09:31:21;;;;;;;;;;;;;;;32.08;28.13;99284.34;4482937;32;33430;-86
2022/05/12 09:33:51;;;;;;;;;;;;;;;32.22;28.96;99276.13;4468578;32;34532;-86
2022/05/12 09:36:19;;;;;;;;;;;;;;;32.43;28.38;99274.56;4482784;32;35266;-85
2022/05/12 09:38:46;;;;;;;;;;;;;;;32.43;28.77;99281.75;4482880;32;34415;-85
2022/05/12 09:41:15;;;;;;;;;;;;;;;32.51;27.58;99278.47;4463214;32;33111;-85
2022/05/12 09:43:43;;;;;;;;;;;;;;;32.02;28.51;99279.44;4467309;32;34826;-85
2022/05/12 09:46:19;;;;;;;;;;;;;;;32.44;27.81;99278.94;4467075;32;35395;-85
2022/05/12 09:48:50;;;;;;;;;;;;;;;32.83;27.35;99271.47;4453071;32;34797;-85
2022/05/12 09:51:23;;;;;;;;;;;;;;;32.69;27.43;99272.56;4466962;32;34367;-86
2022/05/12 09:53:52;;;;;;;;;;;;;;;33.12;26.70;99265.69;4466914;32;34866;-85
2022/05/12 09:56:31;;;;;;;;;;;;;;;33.06;26.90;99264.34;4452671;32;35289;-86
2022/05/12 09:59:03;;;;;;;;;;;;;;;33.61;27.54;99267.19;4466909;32;35038;-85
2022/05/12 10:01:31;;;;;;;;;;;;;;;33.64;26.28;99261.53;4473861;32;33861;-84
2022/05/12 10:09:52;;;;;;;;;;;;;;;34.35;26.13;99252.03;4470121;32;34077;-85
2022/05/12 10:12:22;;;;;;;;;;;;;;;34.21;25.87;99255.06;4470276;32;33526;-84
2022/05/12 10:15:03;;;;;;;;;;;;;;;34.20;26.40;99247.97;4453331;32;34827;-85
2022/05/12 10:17:34;;;;;;;;;;;;;;;34.09;26.51;99245.31;4467996;32;35089;-84
2022/05/12 10:20:04;;;;;;;;;;;;;;;34.19;26.23;99242.72;4467989;32;34703;-85
2022/05/12 10:22:32;;;;;;;;;;;;;;;34.16;26.04;99246.50;4467606;32;34446;-84
2022/05/12 10:25:14;;;;;;;;;;;;;;;34.34;24.90;99239.59;4467838;32;33932;-85
2022/05/12 10:27:45;;;;;;;;;;;;;;;34.36;24.86;99236.75;4467856;32;34880;-85
2022/05/12 10:30:31;;;;;;;;;;;;;;;34.09;26.94;99234.53;4467804;32;33739;-85
2022/05/12 10:33:11;;;;;;;;;;;;;;;34.36;24.46;99226.88;4466444;32;32948;-85
2022/05/12 10:35:38;;;;;;;;;;;;;;;34.32;24.45;99236.19;4466302;32;34880;-85
2022/05/12 10:38:14;;;;;;;;;;;;;;;34.18;25.29;99236.47;4466117;32;35314;-84
2022/05/12 10:40:43;;;;;;;;;;;;;;;33.78;25.05;99234.38;4466789;32;34849;-84
2022/05/12 10:43:13;;;;;;;;;;;;;;;34.16;24.57;99233.06;4467634;32;31905;-84
2022/05/12 10:45:46;;;;;;;;;;;;;;;32.98;26.28;99231.00;4481542;32;35035;-85
2022/05/12 10:48:32;;;;;;;;;;;;;;;33.05;26.79;99230.41;4481607;32;34667;-85
2022/05/12 10:51:02;;;;;;;;;;;;;;;33.37;26.16;99233.19;4479331;32;34544;-84
2022/05/12 10:53:49;;;;;;;;;;;;;;;33.82;25.16;99238.50;4465988;32;33359;-84
2022/05/12 10:56:19;;;;;;;;;;;;;;;34.37;24.52;99235.78;4452627;32;34283;-84
2022/05/12 10:58:52;;;;;;;;;;;;;;;33.75;26.01;99231.94;4471823;32;34357;-84
2022/05/12 11:01:27;;;;;;;;;;;;;;;34.43;24.81;99229.00;4483868;32;35444;-84
2022/05/12 11:04:00;;;;;;;;;;;;;;;34.69;25.08;99216.03;4469560;32;33069;-85
2022/05/12 11:06:30;;;;;;;;;;;;;;;34.68;24.75;99228.66;4464390;32;34287;-85
2022/05/12 11:08:59;;;;;;;;;;;;;;;34.44;25.17;99223.50;4468306;32;35168;-84
2022/05/12 11:11:28;;;;;;;;;;;;;;;34.23;25.72;99210.03;4454327;32;34308;-85
2022/05/12 11:14:01;;;;;;;;;;;;;;;34.79;24.40;99209.72;4453988;32;34274;-85
2022/05/12 11:16:30;;;;;;;;;;;;;;;34.36;24.52;99197.25;4468774;32;34160;-84
2022/05/12 11:18:58;;;;;;;;;;;;;;;35.27;24.09;99202.88;4454376;32;35369;-84
2022/05/12 11:21:28;;;;;;;;;;;;;;;35.33;23.17;99205.88;4468357;32;34762;-85
2022/05/12 11:23:55;;;;;;;;;;;;;;;35.59;25.27;99205.41;4468406;32;34423;-86
2022/05/12 11:26:23;;;;;;;;;;;;;;;34.67;24.09;99199.19;4481362;32;34393;-84
2022/05/12 11:31:40;;;;;;;;;;;;;;;33.86;25.28;99201.47;4478710;32;34340;-84
2022/05/12 11:34:08;;;;;;;;;;;;;;;34.24;24.12;99197.44;4468270;32;34708;-85
2022/05/12 11:36:40;;;;;;;;;;;;;;;34.82;23.63;99196.00;4468057;32;34075;-86
2022/05/12 11:39:28;;;;;;;;;;;;;;;34.84;24.98;99193.16;4455918;32;34581;-85
2022/05/12 11:42:11;;;;;;;;;;;;;;;35.31;26.06;99190.84;4473176;32;34801;-85
2022/05/12 11:44:56;;;;;;;;;;;;;;;35.73;22.63;99178.03;4483828;32;33834;-85
2022/05/12 11:47:43;;;;;;;;;;;;;;;35.96;21.23;99186.72;4468054;32;34201;-85
2022/05/12 11:50:25;;;;;;;;;;;;;;;35.61;22.55;99191.78;4477927;32;35224;-85
2022/05/12 11:53:02;;;;;;;;;;;;;;;35.22;21.87;99186.25;4469352;32;35345;-85
2022/05/12 11:55:32;;;;;;;;;;;;;;;33.66;24.93;99195.06;4483921;32;34211;-85
2022/05/12 11:58:04;;;;;;;;;;;;;;;35.25;23.75;99196.78;4483514;32;34015;-85
2022/05/12 12:00:35;;;;;;;;;;;;;;;34.60;23.52;99188.09;4457078;32;34388;-85
2022/05/12 12:03:22;;;;;;;;;;;;;;;35.43;22.91;99194.28;4468001;32;34686;-85
2022/05/12 12:05:49;;;;;;;;;;;;;;;34.56;23.64;99184.81;4467737;32;33232;-85
2022/05/12 12:08:32;;;;;;;;;;;;;;;34.13;22.14;99180.38;4466766;32;34899;-86
2022/05/12 12:11:11;;;;;;;;;;;;;;;34.69;22.49;99184.56;4467842;32;34121;-85
2022/05/12 12:13:39;;;;;;;;;;;;;;;33.96;21.85;99174.66;4467930;32;34321;-85
2022/05/12 12:16:14;;;;;;;;;;;;;;;33.72;22.38;99175.75;4472397;32;33183;-85
2022/05/12 12:18:42;;;;;;;;;;;;;;;34.81;21.14;99182.66;4471717;32;34992;-85
2022/05/12 12:21:25;;;;;;;;;;;;;;;33.97;20.47;99171.00;4469362;32;34303;-84
2022/05/12 12:24:03;;;;;;;;;;;;;;;34.07;21.30;99174.66;4483952;32;34403;-85
2022/05/12 12:26:32;;;;;;;;;;;;;;;33.82;21.41;99178.50;4470212;32;34425;-85
2022/05/12 12:29:05;;;;;;;;;;;;;;;34.81;20.10;99178.13;4470021;32;33998;-85
2022/05/12 12:31:37;;;;;;;;;;;;;;;35.10;20.44;99161.25;4469599;32;34120;-85
2022/05/12 12:34:21;;;;;;;;;;;;;;;34.22;21.44;99165.28;4463378;32;34253;-84
2022/05/12 12:36:49;;;;;;;;;;;;;;;35.20;20.25;99167.53;4453967;32;33448;-85
2022/05/12 12:39:30;;;;;;;;;;;;;;;35.29;20.67;99169.41;4467891;32;33952;-85
2022/05/12 12:42:03;;;;;;;;;;;;;;;35.01;21.32;99167.47;4454032;32;33575;-85
2022/05/12 12:44:31;;;;;;;;;;;;;;;34.35;20.89;99159.69;4471845;32;34053;-82
2022/05/12 12:46:58;;;;;;;;;;;;;;;34.03;21.95;99157.91;4460044;32;34188;-83
2022/05/12 12:49:28;;;;;;;;;;;;;;;34.64;18.95;99164.44;4470564;32;35128;-83
2022/05/12 12:52:16;;;;;;;;;;;;;;;35.18;17.87;99150.66;4467521;32;34913;-85
2022/05/12 12:57:43;;;;;;;;;;;;;;;35.36;17.44;99147.31;4469852;32;34072;-85
2022/05/12 13:00:15;;;;;;;;;;;;;;;35.62;17.81;99148.50;4468810;32;35159;-84
2022/05/12 13:02:44;;;;;;;;;;;;;;;35.51;18.85;99156.72;4482532;32;35176;-84
2022/05/12 13:05:11;;;;;;;;;;;;;;;36.36;17.58;99138.97;4468711;32;35743;-85
2022/05/12 13:07:40;;;;;;;;;;;;;;;35.01;19.15;99145.94;4473685;32;33513;-85
2022/05/12 13:10:10;;;;;;;;;;;;;;;34.21;20.60;99143.88;4453419;32;35023;-86
2022/05/12 13:12:38;;;;;;;;;;;;;;;34.27;20.01;99146.87;4469876;32;35180;-85
2022/05/12 13:15:24;;;;;;;;;;;;;;;35.09;19.27;99144.25;4467436;32;34108;-85
2022/05/12 13:17:54;;;;;;;;;;;;;;;35.66;18.83;99135.59;4483202;32;33535;-85
2022/05/12 13:20:42;;;;;;;;;;;;;;;35.56;19.83;99122.94;4464902;32;33757;-86
2022/05/12 13:23:11;;;;;;;;;;;;;;;35.38;20.84;99137.22;4465509;32;35365;-80
2022/05/12 13:25:40;;;;;;;;;;;;;;;33.83;21.67;99127.28;4468867;32;34626;-85